sensor_id;sensor_type;location;lat;lon;timestamp;temperature;humidity
4749;DHT22;2388;53.582;9.962;2023-04-01T00:00:22;11.00;99.90
4749;DHT22;2388;53.582;9.962;2023-04-01T00:02:47;11.00;99.90
4749;DHT22;2388;53.582;9.962;2023-04-01T00:05:13;11.00;99.90
4749;DHT22;2388;53.582;9.962;2023-04-01T00:07:39;11.00;99.90
4749;DHT22;2388;53.582;9.962;2023-04-01T00:10:08;10.90;99.90
4749;DHT22;2388;53.582;9.962;2023-04-01T00:12:34;10.90;99.90
4749;DHT22;2388;53.582;9.962;2023-04-01T00:15:00;10.90;99.90
4749;DHT22;2388;53.582;9.962;2023-04-01T00:17:25;10.90;99.90
4749;DHT22;2388;53.582;9.962;2023-04-01T00:19:51;10.90;99.90
4749;DHT22;2388;53.582;9.962;2023-04-01T00:22:17;10.80;99.90
4749;DHT22;2388;53.582;9.962;2023-04-01T00:24:42;10.80;99.90
4749;DHT22;2388;53.582;9.962;2023-04-01T00:27:08;10.90;99.90
4749;DHT22;2388;53.582;9.962;2023-04-01T00:29:34;10.90;99.90
4749;DHT22;2388;53.582;9.962;2023-04-01T00:31:59;10.80;99.90
4749;DHT22;2388;53.582;9.962;2023-04-01T00:34:25;10.80;99.90
4749;DHT22;2388;53.582;9.962;2023-04-01T00:36:52;10.80;99.90
4749;DHT22;2388;53.582;9.962;2023-04-01T00:39:18;10.80;99.90
4749;DHT22;2388;53.582;9.962;2023-04-01T00:41:44;10.90;99.90
4749;DHT22;2388;53.582;9.962;2023-04-01T00:44:22;10.80;99.90
4749;DHT22;2388;53.582;9.962;2023-04-01T00:46:48;10.80;99.90
4749;DHT22;2388;53.582;9.962;2023-04-01T00:49:15;10.80;99.90
4749;DHT22;2388;53.582;9.962;2023-04-01T00:51:43;10.80;99.90
4749;DHT22;2388;53.582;9.962;2023-04-01T00:54:11;10.80;99.90
4749;DHT22;2388;53.582;9.962;2023-04-01T00:56:39;10.80;99.90
4749;DHT22;2388;53.582;9.962;2023-04-01T00:59:10;10.70;99.90
4749;DHT22;2388;53.582;9.962;2023-04-01T01:01:37;10.80;99.90
4749;DHT22;2388;53.582;9.962;2023-04-01T01:04:03;10.80;99.90
4749;DHT22;2388;53.582;9.962;2023-04-01T01:11:45;10.80;99.90
4749;DHT22;2388;53.582;9.962;2023-04-01T01:14:32;10.80;99.90
4749;DHT22;2388;53.582;9.962;2023-04-01T01:17:19;10.80;99.90
4749;DHT22;2388;53.582;9.962;2023-04-01T01:23:06;10.80;99.90
4749;DHT22;2388;53.582;9.962;2023-04-01T01:26:00;10.80;99.90
4749;DHT22;2388;53.582;9.962;2023-04-01T01:31:24;10.80;99.90
4749;DHT22;2388;53.582;9.962;2023-04-01T01:36:32;10.80;99.90
4749;DHT22;2388;53.582;9.962;2023-04-01T01:39:02;10.80;99.90
4749;DHT22;2388;53.582;9.962;2023-04-01T01:41:29;10.80;99.90
4749;DHT22;2388;53.582;9.962;2023-04-01T01:43:56;10.80;99.90
4749;DHT22;2388;53.582;9.962;2023-04-01T01:46:24;10.80;99.90
4749;DHT22;2388;53.582;9.962;2023-04-01T01:48:51;10.80;99.90
4749;DHT22;2388;53.582;9.962;2023-04-01T01:51:19;10.80;99.90
4749;DHT22;2388;53.582;9.962;2023-04-01T01:53:45;10.70;99.90
4749;DHT22;2388;53.582;9.962;2023-04-01T01:56:11;10.80;99.90
4749;DHT22;2388;53.582;9.962;2023-04-01T01:58:46;10.70;99.90
4749;DHT22;2388;53.582;9.962;2023-04-01T02:01:16;10.70;99.90
4749;DHT22;2388;53.582;9.962;2023-04-01T02:03:43;10.80;99.90
4749;DHT22;2388;53.582;9.962;2023-04-01T02:06:11;10.80;99.90
4749;DHT22;2388;53.582;9.962;2023-04-01T02:08:48;10.80;99.90
4749;DHT22;2388;53.582;9.962;2023-04-01T02:11:17;10.80;99.90
4749;DHT22;2388;53.582;9.962;2023-04-01T02:13:56;10.80;99.90
4749;DHT22;2388;53.582;9.962;2023-04-01T02:16:35;10.90;99.90
4749;DHT22;2388;53.582;9.962;2023-04-01T02:19:03;10.90;99.90
4749;DHT22;2388;53.582;9.962;2023-04-01T02:21:33;10.90;99.90
4749;DHT22;2388;53.582;9.962;2023-04-01T02:24:01;10.90;99.90
4749;DHT22;2388;53.582;9.962;2023-04-01T02:26:27;10.80;99.90
4749;DHT22;2388;53.582;9.962;2023-04-01T02:28:54;10.80;99.90
4749;DHT22;2388;53.582;9.962;2023-04-01T02:31:21;10.80;99.90
4749;DHT22;2388;53.582;9.962;2023-04-01T02:33:47;10.80;99.90
4749;DHT22;2388;53.582;9.962;2023-04-01T02:36:14;10.80;99.90
4749;DHT22;2388;53.582;9.962;2023-04-01T02:38:42;10.80;99.90
4749;DHT22;2388;53.582;9.962;2023-04-01T02:41:07;10.80;99.90
4749;DHT22;2388;53.582;9.962;2023-04-01T02:43:33;10.80;99.90
4749;DHT22;2388;53.582;9.962;2023-04-01T02:45:59;10.80;99.90
4749;DHT22;2388;53.582;9.962;2023-04-01T02:48:24;10.80;99.90
4749;DHT22;2388;53.582;9.962;2023-04-01T02:50:50;10.70;99.90
4749;DHT22;2388;53.582;9.962;2023-04-01T02:53:16;10.70;99.90
4749;DHT22;2388;53.582;9.962;2023-04-01T02:55:42;10.80;99.90
4749;DHT22;2388;53.582;9.962;2023-04-01T02:58:07;10.70;99.90
4749;DHT22;2388;53.582;9.962;2023-04-01T03:00:33;10.80;99.90
4749;DHT22;2388;53.582;9.962;2023-04-01T03:02:59;10.80;99.90
4749;DHT22;2388;53.582;9.962;2023-04-01T03:05:25;10.80;99.90
4749;DHT22;2388;53.582;9.962;2023-04-01T03:07:50;10.80;99.90
4749;DHT22;2388;53.582;9.962;2023-04-01T03:10:16;10.80;99.90
4749;DHT22;2388;53.582;9.962;2023-04-01T03:12:42;10.80;99.90
4749;DHT22;2388;53.582;9.962;2023-04-01T03:15:10;10.70;99.90
4749;DHT22;2388;53.582;9.962;2023-04-01T03:17:36;10.70;99.90
4749;DHT22;2388;53.582;9.962;2023-04-01T03:20:02;10.80;99.90
4749;DHT22;2388;53.582;9.962;2023-04-01T03:22:30;10.70;99.90
4749;DHT22;2388;53.582;9.962;2023-04-01T03:24:56;10.70;99.90
4749;DHT22;2388;53.582;9.962;2023-04-01T03:27:21;10.70;99.90
4749;DHT22;2388;53.582;9.962;2023-04-01T03:29:46;10.70;99.90
4749;DHT22;2388;53.582;9.962;2023-04-01T03:32:12;10.70;99.90
4749;DHT22;2388;53.582;9.962;2023-04-01T03:34:38;10.70;99.90
4749;DHT22;2388;53.582;9.962;2023-04-01T03:37:03;10.70;99.90
4749;DHT22;2388;53.582;9.962;2023-04-01T03:39:29;10.60;99.90
4749;DHT22;2388;53.582;9.962;2023-04-01T03:41:55;10.70;99.90
4749;DHT22;2388;53.582;9.962;2023-04-01T03:44:21;10.70;99.90
4749;DHT22;2388;53.582;9.962;2023-04-01T03:46:47;10.70;99.90
4749;DHT22;2388;53.582;9.962;2023-04-01T03:49:12;10.70;99.90
4749;DHT22;2388;53.582;9.962;2023-04-01T03:51:39;10.70;99.90
4749;DHT22;2388;53.582;9.962;2023-04-01T03:54:05;10.70;99.90
4749;DHT22;2388;53.582;9.962;2023-04-01T03:56:31;10.70;99.90
4749;DHT22;2388;53.582;9.962;2023-04-01T03:58:57;10.70;99.90
4749;DHT22;2388;53.582;9.962;2023-04-01T04:01:22;10.80;99.90
4749;DHT22;2388;53.582;9.962;2023-04-01T04:03:49;10.80;99.90
4749;DHT22;2388;53.582;9.962;2023-04-01T04:06:16;10.80;99.90
4749;DHT22;2388;53.582;9.962;2023-04-01T04:08:42;10.80;99.90
4749;DHT22;2388;53.582;9.962;2023-04-01T04:11:08;10.80;99.90
4749;DHT22;2388;53.582;9.962;2023-04-01T04:13:34;10.70;99.90
4749;DHT22;2388;53.582;9.962;2023-04-01T04:16:01;10.70;99.90
4749;DHT22;2388;53.582;9.962;2023-04-01T04:18:27;10.80;99.90
4749;DHT22;2388;53.582;9.962;2023-04-01T04:20:53;10.70;99.90
4749;DHT22;2388;53.582;9.962;2023-04-01T04:23:18;10.80;99.90
4749;DHT22;2388;53.582;9.962;2023-04-01T04:26:01;10.70;99.90
4749;DHT22;2388;53.582;9.962;2023-04-01T04:28:29;10.70;99.90
4749;DHT22;2388;53.582;9.962;2023-04-01T04:30:55;10.80;99.90
4749;DHT22;2388;53.582;9.962;2023-04-01T04:33:21;10.70;99.90
4749;DHT22;2388;53.582;9.962;2023-04-01T04:35:47;10.70;99.90
4749;DHT22;2388;53.582;9.962;2023-04-01T04:38:13;10.70;99.90
4749;DHT22;2388;53.582;9.962;2023-04-01T04:40:40;10.70;99.90
4749;DHT22;2388;53.582;9.962;2023-04-01T04:43:06;10.70;99.90
4749;DHT22;2388;53.582;9.962;2023-04-01T04:45:32;10.70;99.90
4749;DHT22;2388;53.582;9.962;2023-04-01T04:47:58;10.70;99.90
4749;DHT22;2388;53.582;9.962;2023-04-01T04:50:24;10.70;99.90
4749;DHT22;2388;53.582;9.962;2023-04-01T04:52:49;10.70;99.90
4749;DHT22;2388;53.582;9.962;2023-04-01T04:55:15;10.70;99.90
4749;DHT22;2388;53.582;9.962;2023-04-01T04:57:41;10.70;99.90
4749;DHT22;2388;53.582;9.962;2023-04-01T05:00:07;10.70;99.90
4749;DHT22;2388;53.582;9.962;2023-04-01T05:02:33;10.70;99.90
4749;DHT22;2388;53.582;9.962;2023-04-01T05:04:59;10.70;99.90
4749;DHT22;2388;53.582;9.962;2023-04-01T05:07:24;10.70;99.90
4749;DHT22;2388;53.582;9.962;2023-04-01T05:09:50;10.70;99.90
4749;DHT22;2388;53.582;9.962;2023-04-01T05:12:15;10.80;99.90
4749;DHT22;2388;53.582;9.962;2023-04-01T05:14:41;10.70;99.90
4749;DHT22;2388;53.582;9.962;2023-04-01T05:17:10;10.80;99.90
4749;DHT22;2388;53.582;9.962;2023-04-01T05:19:36;10.80;99.90
4749;DHT22;2388;53.582;9.962;2023-04-01T05:22:02;10.80;99.90
4749;DHT22;2388;53.582;9.962;2023-04-01T05:24:28;10.80;99.90
4749;DHT22;2388;53.582;9.962;2023-04-01T05:26:53;10.70;99.90
4749;DHT22;2388;53.582;9.962;2023-04-01T05:29:19;10.70;99.90
4749;DHT22;2388;53.582;9.962;2023-04-01T05:31:44;10.80;99.90
4749;DHT22;2388;53.582;9.962;2023-04-01T05:34:10;10.60;99.90
4749;DHT22;2388;53.582;9.962;2023-04-01T05:36:36;10.50;99.90
4749;DHT22;2388;53.582;9.962;2023-04-01T05:39:02;10.30;99.90
4749;DHT22;2388;53.582;9.962;2023-04-01T05:41:28;10.20;99.90
4749;DHT22;2388;53.582;9.962;2023-04-01T05:43:54;10.20;99.90
4749;DHT22;2388;53.582;9.962;2023-04-01T05:46:19;10.20;99.90
4749;DHT22;2388;53.582;9.962;2023-04-01T05:48:45;10.20;99.90
4749;DHT22;2388;53.582;9.962;2023-04-01T05:51:14;10.00;99.90
4749;DHT22;2388;53.582;9.962;2023-04-01T05:53:41;9.90;99.90
4749;DHT22;2388;53.582;9.962;2023-04-01T05:56:07;9.90;99.90
4749;DHT22;2388;53.582;9.962;2023-04-01T05:58:35;9.70;99.90
4749;DHT22;2388;53.582;9.962;2023-04-01T06:01:05;9.70;99.90
4749;DHT22;2388;53.582;9.962;2023-04-01T06:03:32;9.60;99.90
4749;DHT22;2388;53.582;9.962;2023-04-01T06:05:57;9.50;99.90
4749;DHT22;2388;53.582;9.962;2023-04-01T06:08:24;9.40;99.90
4749;DHT22;2388;53.582;9.962;2023-04-01T06:10:53;9.40;99.90
4749;DHT22;2388;53.582;9.962;2023-04-01T06:13:26;9.30;99.90
4749;DHT22;2388;53.582;9.962;2023-04-01T06:16:17;9.20;99.90
4749;DHT22;2388;53.582;9.962;2023-04-01T06:19:11;9.40;99.90
4749;DHT22;2388;53.582;9.962;2023-04-01T06:25:35;9.20;99.90
4749;DHT22;2388;53.582;9.962;2023-04-01T06:31:11;9.20;99.90
4749;DHT22;2388;53.582;9.962;2023-04-01T06:44:53;8.80;99.90
4749;DHT22;2388;53.582;9.962;2023-04-01T06:50:36;8.70;99.90
4749;DHT22;2388;53.582;9.962;2023-04-01T06:56:09;8.80;99.90
4749;DHT22;2388;53.582;9.962;2023-04-01T06:58:39;8.80;99.90
4749;DHT22;2388;53.582;9.962;2023-04-01T07:01:11;8.80;99.90
4749;DHT22;2388;53.582;9.962;2023-04-01T07:04:23;8.80;99.90
4749;DHT22;2388;53.582;9.962;2023-04-01T07:06:57;8.80;99.90
4749;DHT22;2388;53.582;9.962;2023-04-01T07:09:31;8.70;99.90
4749;DHT22;2388;53.582;9.962;2023-04-01T07:12:02;8.70;99.90
4749;DHT22;2388;53.582;9.962;2023-04-01T07:14:39;8.70;99.90
4749;DHT22;2388;53.582;9.962;2023-04-01T07:17:39;8.60;99.90
4749;DHT22;2388;53.582;9.962;2023-04-01T07:20:22;8.50;99.90
4749;DHT22;2388;53.582;9.962;2023-04-01T07:22:51;8.50;99.90
4749;DHT22;2388;53.582;9.962;2023-04-01T07:25:23;8.60;99.90
4749;DHT22;2388;53.582;9.962;2023-04-01T07:27:53;8.60;99.90
4749;DHT22;2388;53.582;9.962;2023-04-01T07:30:23;8.60;99.90
4749;DHT22;2388;53.582;9.962;2023-04-01T07:33:09;8.50;99.90
4749;DHT22;2388;53.582;9.962;2023-04-01T07:35:44;8.40;99.90
4749;DHT22;2388;53.582;9.962;2023-04-01T07:38:14;8.30;99.90
4749;DHT22;2388;53.582;9.962;2023-04-01T07:46:53;8.30;99.90
4749;DHT22;2388;53.582;9.962;2023-04-01T07:49:26;8.30;99.90
4749;DHT22;2388;53.582;9.962;2023-04-01T07:52:09;8.30;99.90
4749;DHT22;2388;53.582;9.962;2023-04-01T07:57:27;8.30;99.90
4749;DHT22;2388;53.582;9.962;2023-04-01T08:00:11;8.40;99.90
4749;DHT22;2388;53.582;9.962;2023-04-01T08:05:25;8.40;99.90
4749;DHT22;2388;53.582;9.962;2023-04-01T08:13:11;8.10;99.90
4749;DHT22;2388;53.582;9.962;2023-04-01T08:21:25;8.10;99.90
4749;DHT22;2388;53.582;9.962;2023-04-01T08:23:56;8.10;99.90
4749;DHT22;2388;53.582;9.962;2023-04-01T08:26:35;8.10;99.90
4749;DHT22;2388;53.582;9.962;2023-04-01T08:29:14;8.10;99.90
4749;DHT22;2388;53.582;9.962;2023-04-01T08:31:49;8.00;99.90
4749;DHT22;2388;53.582;9.962;2023-04-01T08:34:23;8.00;99.90
4749;DHT22;2388;53.582;9.962;2023-04-01T08:36:59;8.10;99.90
4749;DHT22;2388;53.582;9.962;2023-04-01T08:39:37;8.20;99.90
4749;DHT22;2388;53.582;9.962;2023-04-01T08:42:30;8.20;99.90
4749;DHT22;2388;53.582;9.962;2023-04-01T08:45:18;8.20;99.90
4749;DHT22;2388;53.582;9.962;2023-04-01T08:53:47;8.20;99.90
4749;DHT22;2388;53.582;9.962;2023-04-01T08:56:30;8.20;99.90
4749;DHT22;2388;53.582;9.962;2023-04-01T09:04:42;8.10;99.90
4749;DHT22;2388;53.582;9.962;2023-04-01T09:07:35;8.10;99.90
4749;DHT22;2388;53.582;9.962;2023-04-01T09:13:10;8.20;99.90
4749;DHT22;2388;53.582;9.962;2023-04-01T09:16:13;8.20;99.90
4749;DHT22;2388;53.582;9.962;2023-04-01T09:18:49;8.20;99.90
4749;DHT22;2388;53.582;9.962;2023-04-01T09:21:25;8.30;99.90
4749;DHT22;2388;53.582;9.962;2023-04-01T09:35:23;8.10;99.90
4749;DHT22;2388;53.582;9.962;2023-04-01T09:40:56;8.10;99.90
4749;DHT22;2388;53.582;9.962;2023-04-01T09:43:56;8.10;99.90
4749;DHT22;2388;53.582;9.962;2023-04-01T09:51:59;8.40;99.90
4749;DHT22;2388;53.582;9.962;2023-04-01T09:55:11;8.40;99.90
4749;DHT22;2388;53.582;9.962;2023-04-01T10:04:06;8.30;99.90
4749;DHT22;2388;53.582;9.962;2023-04-01T10:10:03;8.20;99.90
4749;DHT22;2388;53.582;9.962;2023-04-01T10:24:00;8.40;99.90
4749;DHT22;2388;53.582;9.962;2023-04-01T10:30:24;8.40;99.90
4749;DHT22;2388;53.582;9.962;2023-04-01T10:32:53;8.40;99.90
4749;DHT22;2388;53.582;9.962;2023-04-01T10:38:29;8.40;99.90
4749;DHT22;2388;53.582;9.962;2023-04-01T10:41:24;8.40;99.90
4749;DHT22;2388;53.582;9.962;2023-04-01T10:44:11;8.40;99.90
4749;DHT22;2388;53.582;9.962;2023-04-01T10:50:05;8.50;99.90
4749;DHT22;2388;53.582;9.962;2023-04-01T10:55:12;8.40;99.90
4749;DHT22;2388;53.582;9.962;2023-04-01T11:01:27;8.50;99.90
4749;DHT22;2388;53.582;9.962;2023-04-01T11:10:22;8.40;99.90
4749;DHT22;2388;53.582;9.962;2023-04-01T11:21:41;8.30;99.90
4749;DHT22;2388;53.582;9.962;2023-04-01T11:26:57;8.30;99.90
4749;DHT22;2388;53.582;9.962;2023-04-01T11:35:28;8.40;99.90
4749;DHT22;2388;53.582;9.962;2023-04-01T11:40:56;8.40;99.90
4749;DHT22;2388;53.582;9.962;2023-04-01T11:46:42;8.40;99.90
4749;DHT22;2388;53.582;9.962;2023-04-01T12:04:27;7.70;99.90
4749;DHT22;2388;53.582;9.962;2023-04-01T12:18:28;7.90;99.90
4749;DHT22;2388;53.582;9.962;2023-04-01T12:24:11;7.40;99.90
4749;DHT22;2388;53.582;9.962;2023-04-01T12:27:17;7.40;99.90
4749;DHT22;2388;53.582;9.962;2023-04-01T12:38:21;7.50;99.90
4749;DHT22;2388;53.582;9.962;2023-04-01T12:41:20;7.60;99.90
4749;DHT22;2388;53.582;9.962;2023-04-01T12:49:21;7.60;99.90
4749;DHT22;2388;53.582;9.962;2023-04-01T12:52:00;7.40;99.90
4749;DHT22;2388;53.582;9.962;2023-04-01T12:54:47;7.60;99.90
4749;DHT22;2388;53.582;9.962;2023-04-01T13:00:30;7.40;99.90
4749;DHT22;2388;53.582;9.962;2023-04-01T13:06:15;7.30;99.90
4749;DHT22;2388;53.582;9.962;2023-04-01T13:12:18;7.40;99.90
4749;DHT22;2388;53.582;9.962;2023-04-01T13:17:22;7.40;99.90
4749;DHT22;2388;53.582;9.962;2023-04-01T13:20:24;7.40;99.90
4749;DHT22;2388;53.582;9.962;2023-04-01T13:23:01;7.30;99.90
4749;DHT22;2388;53.582;9.962;2023-04-01T13:25:46;7.40;99.90
4749;DHT22;2388;53.582;9.962;2023-04-01T13:28:24;7.40;99.90
4749;DHT22;2388;53.582;9.962;2023-04-01T13:31:11;7.40;99.90
4749;DHT22;2388;53.582;9.962;2023-04-01T13:36:37;7.20;99.90
4749;DHT22;2388;53.582;9.962;2023-04-01T13:39:30;7.10;99.90
4749;DHT22;2388;53.582;9.962;2023-04-01T13:42:37;7.10;99.90
4749;DHT22;2388;53.582;9.962;2023-04-01T13:45:29;7.00;99.90
4749;DHT22;2388;53.582;9.962;2023-04-01T13:50:37;7.10;99.90
4749;DHT22;2388;53.582;9.962;2023-04-01T13:53:53;7.20;99.90
4749;DHT22;2388;53.582;9.962;2023-04-01T13:56:37;7.20;99.90
4749;DHT22;2388;53.582;9.962;2023-04-01T13:59:25;7.20;99.90
4749;DHT22;2388;53.582;9.962;2023-04-01T14:11:09;7.40;99.90
4749;DHT22;2388;53.582;9.962;2023-04-01T14:16:38;7.40;99.90
4749;DHT22;2388;53.582;9.962;2023-04-01T14:30:20;7.30;99.90
4749;DHT22;2388;53.582;9.962;2023-04-01T14:36:24;7.30;99.90
4749;DHT22;2388;53.582;9.962;2023-04-01T14:39:13;7.30;99.90
4749;DHT22;2388;53.582;9.962;2023-04-01T14:41:51;8.10;99.90
4749;DHT22;2388;53.582;9.962;2023-04-01T14:44:38;8.00;99.90
4749;DHT22;2388;53.582;9.962;2023-04-01T14:47:23;7.80;99.90
4749;DHT22;2388;53.582;9.962;2023-04-01T14:50:02;7.50;99.90
4749;DHT22;2388;53.582;9.962;2023-04-01T14:52:31;7.50;99.90
4749;DHT22;2388;53.582;9.962;2023-04-01T14:55:00;7.50;99.90
4749;DHT22;2388;53.582;9.962;2023-04-01T14:57:29;7.60;99.90
4749;DHT22;2388;53.582;9.962;2023-04-01T15:08:14;7.50;99.90
4749;DHT22;2388;53.582;9.962;2023-04-01T15:11:02;7.40;99.90
4749;DHT22;2388;53.582;9.962;2023-04-01T15:19:17;7.40;99.90
4749;DHT22;2388;53.582;9.962;2023-04-01T15:33:39;7.30;99.90
4749;DHT22;2388;53.582;9.962;2023-04-01T15:36:30;7.30;99.90
4749;DHT22;2388;53.582;9.962;2023-04-01T15:39:13;7.30;99.90
4749;DHT22;2388;53.582;9.962;2023-04-01T15:42:11;7.30;99.90
4749;DHT22;2388;53.582;9.962;2023-04-01T15:45:06;7.40;99.90
4749;DHT22;2388;53.582;9.962;2023-04-01T15:47:37;7.30;99.90
4749;DHT22;2388;53.582;9.962;2023-04-01T16:01:59;7.20;99.90
4749;DHT22;2388;53.582;9.962;2023-04-01T16:10:09;7.20;99.90
4749;DHT22;2388;53.582;9.962;2023-04-01T16:12:46;6.90;99.90
4749;DHT22;2388;53.582;9.962;2023-04-01T16:15:39;7.00;99.90
4749;DHT22;2388;53.582;9.962;2023-04-01T16:18:18;7.00;99.90
4749;DHT22;2388;53.582;9.962;2023-04-01T16:20:53;6.90;99.90
4749;DHT22;2388;53.582;9.962;2023-04-01T16:23:37;6.80;99.90
4749;DHT22;2388;53.582;9.962;2023-04-01T16:29:06;6.80;99.90
4749;DHT22;2388;53.582;9.962;2023-04-01T16:37:58;6.70;99.90
4749;DHT22;2388;53.582;9.962;2023-04-01T16:43:46;6.60;99.90
4749;DHT22;2388;53.582;9.962;2023-04-01T16:49:13;6.50;99.90
4749;DHT22;2388;53.582;9.962;2023-04-01T16:51:52;6.60;99.90
4749;DHT22;2388;53.582;9.962;2023-04-01T17:02:14;6.60;99.90
4749;DHT22;2388;53.582;9.962;2023-04-01T17:05:03;6.60;99.90
4749;DHT22;2388;53.582;9.962;2023-04-01T17:08:03;6.40;99.90
4749;DHT22;2388;53.582;9.962;2023-04-01T17:10:40;6.40;99.90
4749;DHT22;2388;53.582;9.962;2023-04-01T17:15:43;6.30;99.90
4749;DHT22;2388;53.582;9.962;2023-04-01T17:26:37;6.20;99.90
4749;DHT22;2388;53.582;9.962;2023-04-01T17:29:24;6.20;99.90
4749;DHT22;2388;53.582;9.962;2023-04-01T17:32:09;6.20;99.90
4749;DHT22;2388;53.582;9.962;2023-04-01T17:34:59;6.20;99.90
4749;DHT22;2388;53.582;9.962;2023-04-01T17:37:36;6.30;99.90
4749;DHT22;2388;53.582;9.962;2023-04-01T17:40:32;6.40;99.90
4749;DHT22;2388;53.582;9.962;2023-04-01T17:48:46;6.30;99.90
4749;DHT22;2388;53.582;9.962;2023-04-01T17:51:34;6.40;99.90
4749;DHT22;2388;53.582;9.962;2023-04-01T17:54:28;6.50;99.90
4749;DHT22;2388;53.582;9.962;2023-04-01T17:57:24;6.50;99.90
4749;DHT22;2388;53.582;9.962;2023-04-01T18:00:16;6.40;99.90
4749;DHT22;2388;53.582;9.962;2023-04-01T18:05:52;6.30;99.90
4749;DHT22;2388;53.582;9.962;2023-04-01T18:20:11;6.10;99.90
4749;DHT22;2388;53.582;9.962;2023-04-01T18:23:03;6.10;99.90
4749;DHT22;2388;53.582;9.962;2023-04-01T18:25:36;6.10;99.90
4749;DHT22;2388;53.582;9.962;2023-04-01T18:30:40;6.00;99.90
4749;DHT22;2388;53.582;9.962;2023-04-01T18:33:28;6.10;99.90
4749;DHT22;2388;53.582;9.962;2023-04-01T18:39:04;6.10;99.90
4749;DHT22;2388;53.582;9.962;2023-04-01T18:44:41;6.20;99.90
4749;DHT22;2388;53.582;9.962;2023-04-01T18:52:51;6.00;99.90
4749;DHT22;2388;53.582;9.962;2023-04-01T18:55:29;5.80;99.90
4749;DHT22;2388;53.582;9.962;2023-04-01T19:00:49;5.50;99.90
4749;DHT22;2388;53.582;9.962;2023-04-01T19:04:14;5.70;99.90
4749;DHT22;2388;53.582;9.962;2023-04-01T19:23:42;5.80;99.90
4749;DHT22;2388;53.582;9.962;2023-04-01T19:26:40;5.70;99.90
4749;DHT22;2388;53.582;9.962;2023-04-01T19:32:41;5.70;99.90
4749;DHT22;2388;53.582;9.962;2023-04-01T19:35:52;5.70;99.90
4749;DHT22;2388;53.582;9.962;2023-04-01T19:38:53;5.60;99.90
4749;DHT22;2388;53.582;9.962;2023-04-01T19:41:55;5.40;99.90
4749;DHT22;2388;53.582;9.962;2023-04-01T19:44:49;5.50;99.90
4749;DHT22;2388;53.582;9.962;2023-04-01T19:47:44;5.40;99.90
4749;DHT22;2388;53.582;9.962;2023-04-01T19:52:54;5.40;99.90
4749;DHT22;2388;53.582;9.962;2023-04-01T19:55:41;5.40;99.90
4749;DHT22;2388;53.582;9.962;2023-04-01T19:58:30;5.30;99.90
4749;DHT22;2388;53.582;9.962;2023-04-01T20:01:00;5.10;99.90
4749;DHT22;2388;53.582;9.962;2023-04-01T20:12:26;5.30;99.90
4749;DHT22;2388;53.582;9.962;2023-04-01T20:14:58;5.30;99.90
4749;DHT22;2388;53.582;9.962;2023-04-01T20:17:43;5.20;99.90
4749;DHT22;2388;53.582;9.962;2023-04-01T20:23:01;5.20;99.90
4749;DHT22;2388;53.582;9.962;2023-04-01T20:26:03;5.20;99.90
4749;DHT22;2388;53.582;9.962;2023-04-01T20:28:42;5.10;99.90
4749;DHT22;2388;53.582;9.962;2023-04-01T20:31:22;5.10;99.90
4749;DHT22;2388;53.582;9.962;2023-04-01T20:34:19;5.10;99.90
4749;DHT22;2388;53.582;9.962;2023-04-01T20:37:18;5.10;99.90
4749;DHT22;2388;53.582;9.962;2023-04-01T20:40:24;5.00;99.90
4749;DHT22;2388;53.582;9.962;2023-04-01T20:43:16;5.00;99.90
4749;DHT22;2388;53.582;9.962;2023-04-01T20:51:07;5.10;99.90
4749;DHT22;2388;53.582;9.962;2023-04-01T20:53:43;4.80;99.90
4749;DHT22;2388;53.582;9.962;2023-04-01T20:56:23;4.80;99.90
4749;DHT22;2388;53.582;9.962;2023-04-01T20:59:01;4.70;99.90
4749;DHT22;2388;53.582;9.962;2023-04-01T21:04:23;4.80;99.90
4749;DHT22;2388;53.582;9.962;2023-04-01T21:07:02;4.80;99.90
4749;DHT22;2388;53.582;9.962;2023-04-01T21:09:43;4.90;99.90
4749;DHT22;2388;53.582;9.962;2023-04-01T21:12:35;4.90;99.90
4749;DHT22;2388;53.582;9.962;2023-04-01T21:21:22;4.80;99.90
4749;DHT22;2388;53.582;9.962;2023-04-01T21:27:34;4.70;99.90
4749;DHT22;2388;53.582;9.962;2023-04-01T21:33:16;4.60;99.90
4749;DHT22;2388;53.582;9.962;2023-04-01T21:36:08;4.40;99.90
4749;DHT22;2388;53.582;9.962;2023-04-01T21:38:56;4.30;99.90
4749;DHT22;2388;53.582;9.962;2023-04-01T21:44:32;4.30;99.90
4749;DHT22;2388;53.582;9.962;2023-04-01T21:47:02;4.30;99.90
4749;DHT22;2388;53.582;9.962;2023-04-01T22:01:27;3.90;99.90
4749;DHT22;2388;53.582;9.962;2023-04-01T22:04:34;3.80;99.90
4749;DHT22;2388;53.582;9.962;2023-04-01T22:07:20;3.70;99.90
4749;DHT22;2388;53.582;9.962;2023-04-01T22:09:59;3.80;99.90
4749;DHT22;2388;53.582;9.962;2023-04-01T22:12:40;3.80;99.90
4749;DHT22;2388;53.582;9.962;2023-04-01T22:17:53;3.80;99.90
4749;DHT22;2388;53.582;9.962;2023-04-01T22:23:20;4.00;99.90
4749;DHT22;2388;53.582;9.962;2023-04-01T22:26:12;4.00;99.90
4749;DHT22;2388;53.582;9.962;2023-04-01T22:31:33;4.00;99.90
4749;DHT22;2388;53.582;9.962;2023-04-01T22:36:37;3.90;99.90
4749;DHT22;2388;53.582;9.962;2023-04-01T22:50:37;3.60;99.90
4749;DHT22;2388;53.582;9.962;2023-04-01T22:53:17;3.80;99.90
4749;DHT22;2388;53.582;9.962;2023-04-01T22:55:46;3.60;99.90
4749;DHT22;2388;53.582;9.962;2023-04-01T22:58:17;3.60;99.90
4749;DHT22;2388;53.582;9.962;2023-04-01T23:00:47;3.60;99.90
4749;DHT22;2388;53.582;9.962;2023-04-01T23:03:30;3.60;99.90
4749;DHT22;2388;53.582;9.962;2023-04-01T23:05:59;3.70;99.90
4749;DHT22;2388;53.582;9.962;2023-04-01T23:08:39;3.60;99.90
4749;DHT22;2388;53.582;9.962;2023-04-01T23:11:18;3.60;99.90
4749;DHT22;2388;53.582;9.962;2023-04-01T23:13:49;3.50;99.90
4749;DHT22;2388;53.582;9.962;2023-04-01T23:16:20;3.50;99.90
4749;DHT22;2388;53.582;9.962;2023-04-01T23:21:49;3.40;99.90
4749;DHT22;2388;53.582;9.962;2023-04-01T23:24:28;3.40;99.90
4749;DHT22;2388;53.582;9.962;2023-04-01T23:27:02;3.50;99.90
4749;DHT22;2388;53.582;9.962;2023-04-01T23:29:29;3.40;99.90
4749;DHT22;2388;53.582;9.962;2023-04-01T23:32:04;3.40;99.90
4749;DHT22;2388;53.582;9.962;2023-04-01T23:34:34;3.40;99.90
4749;DHT22;2388;53.582;9.962;2023-04-01T23:37:08;3.30;99.90
4749;DHT22;2388;53.582;9.962;2023-04-01T23:39:37;3.30;99.90
4749;DHT22;2388;53.582;9.962;2023-04-01T23:42:21;3.30;99.90
4749;DHT22;2388;53.582;9.962;2023-04-01T23:44:50;3.30;99.90
4749;DHT22;2388;53.582;9.962;2023-04-01T23:47:24;3.20;99.90
4749;DHT22;2388;53.582;9.962;2023-04-01T23:49:55;3.20;99.90
4749;DHT22;2388;53.582;9.962;2023-04-01T23:52:27;3.20;99.90
4749;DHT22;2388;53.582;9.962;2023-04-01T23:55:08;3.20;99.90
4749;DHT22;2388;53.582;9.962;2023-04-01T23:57:38;3.10;99.90
